createdAt,value
2022-11-17T00:02:38.511Z,51.01
2022-11-17T00:09:24.186Z,50.90
2022-11-17T00:16:10.599Z,51.47
2022-11-17T00:22:58.588Z,51.34
2022-11-17T00:29:44.096Z,51.87
2022-11-17T00:36:30.087Z,51.67
2022-11-17T00:43:18.052Z,51.74
2022-11-17T00:50:05.654Z,51.85
2022-11-17T00:56:51.529Z,51.82
2022-11-17T01:03:40.662Z,51.84
2022-11-17T01:10:26.090Z,51.91
2022-11-17T01:17:11.649Z,51.82
2022-11-17T01:24:02.562Z,51.87
2022-11-17T01:30:48.190Z,52.07
2022-11-17T01:37:34.057Z,51.84
2022-11-17T01:44:57.464Z,52.36
2022-11-17T01:51:47.942Z,52.10
2022-11-17T01:58:38.249Z,52.34
2022-11-17T02:05:52.879Z,52.59
2022-11-17T02:12:40.039Z,52.51
2022-11-17T02:19:28.856Z,52.54
2022-11-17T02:27:12.253Z,52.84
2022-11-17T02:34:13.643Z,52.76
2022-11-17T02:41:08.102Z,52.54
2022-11-17T02:47:57.926Z,52.74
2022-11-17T02:54:46.058Z,52.80
2022-11-17T03:01:52.346Z,53.05
2022-11-17T03:08:50.964Z,52.79
2022-11-17T03:15:50.250Z,53.11
2022-11-17T03:22:46.766Z,53.07
2022-11-17T03:29:36.394Z,52.76
2022-11-17T03:36:31.604Z,52.93
2022-11-17T03:43:20.324Z,53.07
2022-11-17T04:03:57.068Z,53.15
2022-11-17T04:10:54.731Z,53.08
2022-11-17T04:17:40.551Z,53.14
2022-11-17T04:24:28.599Z,53.34
2022-11-17T04:31:17.359Z,53.53
2022-11-17T04:38:02.713Z,53.75
2022-11-17T04:44:50.688Z,53.84
2022-11-17T04:51:37.443Z,54.08
2022-11-17T04:58:22.871Z,53.50
2022-11-17T05:05:12.047Z,54.58
2022-11-17T05:12:12.389Z,55.14
2022-11-17T05:18:58.093Z,55.32
2022-11-17T05:25:46.136Z,55.91
2022-11-17T05:32:31.488Z,56.06
2022-11-17T05:39:16.996Z,56.34
2022-11-17T05:46:05.116Z,56.22
2022-11-17T05:52:51.341Z,56.37
2022-11-17T05:59:41.378Z,56.39
2022-11-17T06:06:29.597Z,56.56
2022-11-17T06:13:15.023Z,55.98
2022-11-17T06:20:05.204Z,56.04
2022-11-17T06:26:53.374Z,56.41
2022-11-17T06:33:41.337Z,56.57
2022-11-17T06:40:26.779Z,56.70
2022-11-17T06:47:14.785Z,56.90
2022-11-17T06:54:00.262Z,57.18
2022-11-17T07:00:45.855Z,57.16
2022-11-17T07:07:34.047Z,57.40
2022-11-17T07:14:20.422Z,57.34
2022-11-17T07:21:07.531Z,57.73
2022-11-17T07:28:02.080Z,57.92
2022-11-17T07:34:47.540Z,57.70
2022-11-17T07:41:33.062Z,57.72
2022-11-17T07:48:21.240Z,57.88
2022-11-17T07:55:07.926Z,58.01
2022-11-17T08:01:53.439Z,57.91
2022-11-17T08:08:42.174Z,57.88
2022-11-17T08:15:27.981Z,57.98
2022-11-17T08:22:14.480Z,57.98
2022-11-17T08:29:02.637Z,58.23
2022-11-17T08:35:48.113Z,58.46
2022-11-17T08:42:33.537Z,58.33
2022-11-17T08:49:21.711Z,58.90
2022-11-17T08:56:10.836Z,59.13
2022-11-17T09:02:56.228Z,59.12
2022-11-17T09:09:46.192Z,59.26
2022-11-17T09:16:31.701Z,59.21
2022-11-17T09:23:17.131Z,59.58
2022-11-17T09:30:05.455Z,59.52
2022-11-17T09:36:51.433Z,59.40
2022-11-17T09:43:41.521Z,59.48
2022-11-17T09:50:34.459Z,59.29
2022-11-17T09:57:28.739Z,59.27
2022-11-17T10:04:17.471Z,59.35
2022-11-17T10:11:26.616Z,59.41
2022-11-17T10:18:16.636Z,59.54
2022-11-17T10:25:02.157Z,59.39
2022-11-17T10:31:50.312Z,59.64
2022-11-17T10:38:37.497Z,59.35
2022-11-17T10:45:23.398Z,59.30
2022-11-17T10:52:21.303Z,59.10
2022-11-17T10:59:18.125Z,58.71
2022-11-17T11:06:21.392Z,58.72
2022-11-17T11:13:22.212Z,58.45
2022-11-17T11:20:10.198Z,58.13
2022-11-17T11:27:09.762Z,58.07
2022-11-17T11:34:10.406Z,58.23
2022-11-17T11:41:17.309Z,57.91
2022-11-17T11:48:24.009Z,57.56
2022-11-17T11:55:23.869Z,57.63
2022-11-17T12:02:26.100Z,58.01
2022-11-17T12:09:46.583Z,58.50
2022-11-17T12:16:40.177Z,58.05
2022-11-17T12:23:57.346Z,58.50
2022-11-17T12:30:58.446Z,58.46
2022-11-17T12:37:46.414Z,58.40
2022-11-17T12:45:03.138Z,58.41
2022-11-17T12:51:58.579Z,58.32
2022-11-17T12:59:02.926Z,57.99
2022-11-17T13:06:01.631Z,57.94
2022-11-17T13:13:13.012Z,57.63
2022-11-17T13:20:07.978Z,58.45
2022-11-17T13:27:02.976Z,59.13
2022-11-17T13:34:00.967Z,59.45
2022-11-17T13:40:50.141Z,59.71
2022-11-17T13:47:48.266Z,59.56
2022-11-17T13:54:34.348Z,59.84
2022-11-17T14:01:27.943Z,59.79
2022-11-17T14:08:28.751Z,59.47
2022-11-17T14:15:21.542Z,59.04
2022-11-17T14:22:31.769Z,59.02
2022-11-17T14:29:17.670Z,58.48
2022-11-17T14:36:04.756Z,58.76
2022-11-17T14:42:52.944Z,58.82
2022-11-17T14:49:38.367Z,59.08
2022-11-17T14:56:27.158Z,59.29
2022-11-17T15:03:15.172Z,59.21
2022-11-17T15:10:00.889Z,59.57
2022-11-17T15:16:46.329Z,59.91
2022-11-17T15:23:34.845Z,60.38
2022-11-17T15:30:21.067Z,60.34
2022-11-17T15:37:06.534Z,60.73
2022-11-17T15:43:54.919Z,61.00
2022-11-17T15:50:40.534Z,60.98
2022-11-17T15:57:25.989Z,61.55
2022-11-17T16:04:16.589Z,61.73
2022-11-17T16:11:02.805Z,61.95
2022-11-17T16:17:48.187Z,61.51
2022-11-17T16:24:36.314Z,61.95
2022-11-17T16:31:24.399Z,61.59
2022-11-17T16:38:10.145Z,61.70
2022-11-17T16:44:58.151Z,61.75
2022-11-17T16:51:44.361Z,61.45
2022-11-17T16:58:29.901Z,61.43
2022-11-17T17:05:18.278Z,61.31
2022-11-17T17:12:03.707Z,60.25
2022-11-17T17:18:49.540Z,60.35
2022-11-17T17:25:37.558Z,60.67
2022-11-17T17:32:23.004Z,61.08
2022-11-17T17:39:09.277Z,61.55
2022-11-17T17:46:03.143Z,61.43
2022-11-17T17:52:48.606Z,61.56
2022-11-17T17:59:33.954Z,61.62
2022-11-17T18:06:24.499Z,61.80
2022-11-17T18:13:10.961Z,61.30
2022-11-17T18:19:57.050Z,60.97
2022-11-17T18:26:45.053Z,61.17
2022-11-17T18:33:30.499Z,61.00
2022-11-17T18:40:16.967Z,60.85
2022-11-17T18:47:05.225Z,61.05
2022-11-17T18:53:51.677Z,61.23
2022-11-17T19:00:37.117Z,60.97
2022-11-17T19:07:25.689Z,60.76
2022-11-17T19:14:11.224Z,60.44
2022-11-17T19:20:56.653Z,59.78
2022-11-17T19:27:45.456Z,59.65
2022-11-17T19:34:31.428Z,59.45
2022-11-17T19:41:19.899Z,59.69
2022-11-17T19:48:09.247Z,59.29
2022-11-17T19:54:54.773Z,59.26
2022-11-17T20:01:40.737Z,59.04
2022-11-17T20:08:28.834Z,58.95
2022-11-17T20:15:32.969Z,58.79
2022-11-17T20:22:18.904Z,58.68
2022-11-17T20:29:06.920Z,58.77
2022-11-17T20:35:52.447Z,58.42
2022-11-17T20:42:38.051Z,58.34
2022-11-17T20:49:28.267Z,58.60
2022-11-17T20:56:16.486Z,58.49
2022-11-17T21:03:02.201Z,58.25
2022-11-17T21:09:50.270Z,58.26
2022-11-17T21:16:36.832Z,58.49
2022-11-17T21:23:22.331Z,58.78
2022-11-17T21:30:13.432Z,59.67
2022-11-17T21:36:58.858Z,60.04
2022-11-17T21:43:46.876Z,60.66
2022-11-17T21:50:34.886Z,61.23
2022-11-17T21:57:20.358Z,61.80
2022-11-17T22:04:06.666Z,61.81
2022-11-17T22:10:54.574Z,62.09
2022-11-17T22:17:39.991Z,62.11
2022-11-17T22:24:26.059Z,62.18
2022-11-17T22:31:14.219Z,62.12
2022-11-17T22:38:00.005Z,62.42
2022-11-17T22:44:48.340Z,62.47
2022-11-17T22:51:49.106Z,62.47
2022-11-17T22:58:35.278Z,62.57
2022-11-17T23:05:21.487Z,62.61
2022-11-17T23:12:10.258Z,62.80
2022-11-17T23:18:57.380Z,62.54
2022-11-17T23:25:43.194Z,62.51
2022-11-17T23:32:31.244Z,62.32
2022-11-17T23:39:16.971Z,62.42
2022-11-17T23:46:08.386Z,62.62
2022-11-17T23:52:56.442Z,63.06
2022-11-17T23:59:42.225Z,63.08
